sensor_id;sensor_type;location;lat;lon;timestamp;P1;durP1;ratioP1;P2;durP2;ratioP2
69569;SDS011;56781;42.292;23.146;2022-11-11T00:01:17;99.00;;;27.35;;
69569;SDS011;56781;42.292;23.146;2022-11-11T00:03:45;108.32;;;26.63;;
69569;SDS011;56781;42.292;23.146;2022-11-11T00:06:13;98.72;;;26.60;;
69569;SDS011;56781;42.292;23.146;2022-11-11T00:08:41;121.13;;;31.13;;
69569;SDS011;56781;42.292;23.146;2022-11-11T00:11:09;113.53;;;43.85;;
69569;SDS011;56781;42.292;23.146;2022-11-11T00:13:38;101.88;;;25.58;;
69569;SDS011;56781;42.292;23.146;2022-11-11T00:16:08;121.28;;;37.33;;
69569;SDS011;56781;42.292;23.146;2022-11-11T00:18:37;84.72;;;26.60;;
69569;SDS011;56781;42.292;23.146;2022-11-11T00:21:23;100.97;;;28.30;;
69569;SDS011;56781;42.292;23.146;2022-11-11T00:24:18;104.32;;;27.38;;
69569;SDS011;56781;42.292;23.146;2022-11-11T00:27:03;64.45;;;23.15;;
69569;SDS011;56781;42.292;23.146;2022-11-11T00:29:31;64.40;;;24.35;;
69569;SDS011;56781;42.292;23.146;2022-11-11T00:31:58;60.13;;;22.77;;
69569;SDS011;56781;42.292;23.146;2022-11-11T00:34:43;59.63;;;21.07;;
69569;SDS011;56781;42.292;23.146;2022-11-11T00:37:31;58.05;;;19.13;;
69569;SDS011;56781;42.292;23.146;2022-11-11T00:39:58;75.38;;;21.23;;
69569;SDS011;56781;42.292;23.146;2022-11-11T00:42:26;80.00;;;24.05;;
69569;SDS011;56781;42.292;23.146;2022-11-11T00:44:53;72.32;;;20.95;;
69569;SDS011;56781;42.292;23.146;2022-11-11T00:47:21;81.50;;;20.00;;
69569;SDS011;56781;42.292;23.146;2022-11-11T00:50:09;94.03;;;21.40;;
69569;SDS011;56781;42.292;23.146;2022-11-11T00:52:57;88.68;;;21.63;;
69569;SDS011;56781;42.292;23.146;2022-11-11T00:55:24;83.35;;;23.27;;
69569;SDS011;56781;42.292;23.146;2022-11-11T00:57:51;65.47;;;20.50;;
69569;SDS011;56781;42.292;23.146;2022-11-11T01:00:18;80.70;;;20.97;;
69569;SDS011;56781;42.292;23.146;2022-11-11T01:02:46;97.05;;;23.00;;
69569;SDS011;56781;42.292;23.146;2022-11-11T01:05:13;118.63;;;21.65;;
69569;SDS011;56781;42.292;23.146;2022-11-11T01:07:40;95.65;;;21.95;;
69569;SDS011;56781;42.292;23.146;2022-11-11T01:10:07;97.38;;;20.90;;
69569;SDS011;56781;42.292;23.146;2022-11-11T01:12:35;91.30;;;23.70;;
69569;SDS011;56781;42.292;23.146;2022-11-11T01:15:02;151.07;;;24.85;;
69569;SDS011;56781;42.292;23.146;2022-11-11T01:17:30;137.27;;;23.90;;
69569;SDS011;56781;42.292;23.146;2022-11-11T01:19:57;110.72;;;23.33;;
69569;SDS011;56781;42.292;23.146;2022-11-11T01:22:24;130.30;;;22.77;;
69569;SDS011;56781;42.292;23.146;2022-11-11T01:24:51;114.57;;;22.97;;
69569;SDS011;56781;42.292;23.146;2022-11-11T01:27:18;182.00;;;24.85;;
69569;SDS011;56781;42.292;23.146;2022-11-11T01:29:45;156.70;;;23.75;;
69569;SDS011;56781;42.292;23.146;2022-11-11T01:32:12;152.55;;;24.00;;
69569;SDS011;56781;42.292;23.146;2022-11-11T01:34:39;110.57;;;24.17;;
69569;SDS011;56781;42.292;23.146;2022-11-11T01:37:07;130.83;;;23.27;;
69569;SDS011;56781;42.292;23.146;2022-11-11T01:39:34;107.38;;;21.83;;
69569;SDS011;56781;42.292;23.146;2022-11-11T01:42:01;111.63;;;20.38;;
69569;SDS011;56781;42.292;23.146;2022-11-11T01:44:47;97.43;;;20.35;;
69569;SDS011;56781;42.292;23.146;2022-11-11T01:47:15;85.32;;;21.25;;
69569;SDS011;56781;42.292;23.146;2022-11-11T01:49:49;108.80;;;20.70;;
69569;SDS011;56781;42.292;23.146;2022-11-11T01:57:26;104.50;;;20.88;;
69569;SDS011;56781;42.292;23.146;2022-11-11T02:00:08;115.18;;;21.00;;
69569;SDS011;56781;42.292;23.146;2022-11-11T02:02:39;108.20;;;20.07;;
69569;SDS011;56781;42.292;23.146;2022-11-11T02:05:11;114.30;;;22.85;;
69569;SDS011;56781;42.292;23.146;2022-11-11T02:08:00;98.85;;;21.40;;
69569;SDS011;56781;42.292;23.146;2022-11-11T02:10:31;102.97;;;20.42;;
69569;SDS011;56781;42.292;23.146;2022-11-11T02:12:59;109.90;;;22.10;;
69569;SDS011;56781;42.292;23.146;2022-11-11T02:15:46;137.70;;;23.07;;
69569;SDS011;56781;42.292;23.146;2022-11-11T02:18:13;110.15;;;21.30;;
69569;SDS011;56781;42.292;23.146;2022-11-11T02:20:41;108.85;;;20.58;;
69569;SDS011;56781;42.292;23.146;2022-11-11T02:23:14;91.22;;;19.50;;
69569;SDS011;56781;42.292;23.146;2022-11-11T02:26:01;107.97;;;18.27;;
69569;SDS011;56781;42.292;23.146;2022-11-11T02:28:30;76.13;;;18.43;;
69569;SDS011;56781;42.292;23.146;2022-11-11T02:30:59;74.57;;;19.30;;
69569;SDS011;56781;42.292;23.146;2022-11-11T02:33:26;99.25;;;19.38;;
69569;SDS011;56781;42.292;23.146;2022-11-11T02:35:54;85.28;;;19.10;;
69569;SDS011;56781;42.292;23.146;2022-11-11T02:38:24;110.75;;;18.58;;
69569;SDS011;56781;42.292;23.146;2022-11-11T02:40:52;95.27;;;17.70;;
69569;SDS011;56781;42.292;23.146;2022-11-11T02:43:37;67.38;;;15.55;;
69569;SDS011;56781;42.292;23.146;2022-11-11T02:46:05;116.32;;;17.70;;
69569;SDS011;56781;42.292;23.146;2022-11-11T02:48:33;96.65;;;18.05;;
69569;SDS011;56781;42.292;23.146;2022-11-11T02:51:01;117.55;;;36.50;;
69569;SDS011;56781;42.292;23.146;2022-11-11T02:53:28;99.97;;;23.93;;
69569;SDS011;56781;42.292;23.146;2022-11-11T02:55:55;109.97;;;20.33;;
69569;SDS011;56781;42.292;23.146;2022-11-11T02:58:22;88.47;;;19.33;;
69569;SDS011;56781;42.292;23.146;2022-11-11T03:00:50;133.27;;;22.25;;
69569;SDS011;56781;42.292;23.146;2022-11-11T03:03:17;63.60;;;17.88;;
69569;SDS011;56781;42.292;23.146;2022-11-11T03:05:44;88.67;;;18.50;;
69569;SDS011;56781;42.292;23.146;2022-11-11T03:08:11;75.93;;;18.95;;
69569;SDS011;56781;42.292;23.146;2022-11-11T03:10:39;79.05;;;20.65;;
69569;SDS011;56781;42.292;23.146;2022-11-11T03:13:06;81.68;;;18.35;;
69569;SDS011;56781;42.292;23.146;2022-11-11T03:15:33;90.80;;;19.52;;
69569;SDS011;56781;42.292;23.146;2022-11-11T03:18:00;69.40;;;18.30;;
69569;SDS011;56781;42.292;23.146;2022-11-11T03:20:28;106.65;;;19.80;;
69569;SDS011;56781;42.292;23.146;2022-11-11T03:23:13;81.05;;;19.27;;
69569;SDS011;56781;42.292;23.146;2022-11-11T03:25:43;94.70;;;18.85;;
69569;SDS011;56781;42.292;23.146;2022-11-11T03:28:16;83.70;;;18.58;;
69569;SDS011;56781;42.292;23.146;2022-11-11T03:30:45;100.27;;;19.87;;
69569;SDS011;56781;42.292;23.146;2022-11-11T03:33:14;78.07;;;18.67;;
69569;SDS011;56781;42.292;23.146;2022-11-11T03:35:42;113.40;;;20.80;;
69569;SDS011;56781;42.292;23.146;2022-11-11T03:38:12;74.38;;;20.20;;
69569;SDS011;56781;42.292;23.146;2022-11-11T03:40:50;86.07;;;20.35;;
69569;SDS011;56781;42.292;23.146;2022-11-11T03:43:20;84.33;;;20.67;;
69569;SDS011;56781;42.292;23.146;2022-11-11T03:45:51;95.72;;;20.42;;
69569;SDS011;56781;42.292;23.146;2022-11-11T03:48:20;76.03;;;21.88;;
69569;SDS011;56781;42.292;23.146;2022-11-11T03:50:47;62.05;;;19.98;;
69569;SDS011;56781;42.292;23.146;2022-11-11T03:53:15;48.10;;;16.10;;
69569;SDS011;56781;42.292;23.146;2022-11-11T03:55:46;51.83;;;18.87;;
69569;SDS011;56781;42.292;23.146;2022-11-11T03:58:13;88.47;;;18.95;;
69569;SDS011;56781;42.292;23.146;2022-11-11T04:00:41;56.70;;;17.70;;
69569;SDS011;56781;42.292;23.146;2022-11-11T04:03:18;101.97;;;20.52;;
69569;SDS011;56781;42.292;23.146;2022-11-11T04:06:04;80.95;;;17.67;;
69569;SDS011;56781;42.292;23.146;2022-11-11T04:08:50;62.90;;;15.27;;
69569;SDS011;56781;42.292;23.146;2022-11-11T04:11:36;75.10;;;16.20;;
69569;SDS011;56781;42.292;23.146;2022-11-11T04:14:10;71.63;;;15.90;;
69569;SDS011;56781;42.292;23.146;2022-11-11T04:16:57;67.72;;;14.98;;
69569;SDS011;56781;42.292;23.146;2022-11-11T04:19:24;46.67;;;14.85;;
69569;SDS011;56781;42.292;23.146;2022-11-11T04:22:10;45.20;;;15.53;;
69569;SDS011;56781;42.292;23.146;2022-11-11T04:24:37;41.28;;;15.85;;
69569;SDS011;56781;42.292;23.146;2022-11-11T04:27:22;42.42;;;15.90;;
69569;SDS011;56781;42.292;23.146;2022-11-11T04:29:49;41.75;;;16.15;;
69569;SDS011;56781;42.292;23.146;2022-11-11T04:32:20;42.03;;;15.90;;
69569;SDS011;56781;42.292;23.146;2022-11-11T04:35:10;44.37;;;16.47;;
69569;SDS011;56781;42.292;23.146;2022-11-11T04:37:45;42.45;;;16.48;;
69569;SDS011;56781;42.292;23.146;2022-11-11T04:40:15;43.25;;;15.82;;
69569;SDS011;56781;42.292;23.146;2022-11-11T04:43:01;44.08;;;16.45;;
69569;SDS011;56781;42.292;23.146;2022-11-11T04:45:28;40.00;;;15.40;;
69569;SDS011;56781;42.292;23.146;2022-11-11T04:48:05;62.20;;;23.03;;
69569;SDS011;56781;42.292;23.146;2022-11-11T04:50:37;47.67;;;17.30;;
69569;SDS011;56781;42.292;23.146;2022-11-11T04:53:07;40.53;;;16.23;;
69569;SDS011;56781;42.292;23.146;2022-11-11T04:55:37;40.90;;;16.35;;
69569;SDS011;56781;42.292;23.146;2022-11-11T04:58:24;40.58;;;16.50;;
69569;SDS011;56781;42.292;23.146;2022-11-11T05:00:53;44.50;;;16.87;;
69569;SDS011;56781;42.292;23.146;2022-11-11T05:03:21;36.85;;;14.93;;
69569;SDS011;56781;42.292;23.146;2022-11-11T05:05:52;42.47;;;17.80;;
69569;SDS011;56781;42.292;23.146;2022-11-11T05:08:41;43.63;;;16.80;;
69569;SDS011;56781;42.292;23.146;2022-11-11T05:11:23;49.20;;;20.27;;
69569;SDS011;56781;42.292;23.146;2022-11-11T05:13:52;62.30;;;23.70;;
69569;SDS011;56781;42.292;23.146;2022-11-11T05:16:40;49.05;;;19.25;;
69569;SDS011;56781;42.292;23.146;2022-11-11T05:19:28;50.00;;;19.20;;
69569;SDS011;56781;42.292;23.146;2022-11-11T05:22:15;44.28;;;18.52;;
69569;SDS011;56781;42.292;23.146;2022-11-11T05:24:56;45.75;;;18.45;;
69569;SDS011;56781;42.292;23.146;2022-11-11T05:27:42;55.43;;;20.53;;
69569;SDS011;56781;42.292;23.146;2022-11-11T05:30:10;87.20;;;28.73;;
69569;SDS011;56781;42.292;23.146;2022-11-11T05:32:38;44.63;;;16.83;;
69569;SDS011;56781;42.292;23.146;2022-11-11T05:35:06;43.05;;;16.25;;
69569;SDS011;56781;42.292;23.146;2022-11-11T05:37:34;52.63;;;25.13;;
69569;SDS011;56781;42.292;23.146;2022-11-11T05:40:01;58.13;;;22.63;;
69569;SDS011;56781;42.292;23.146;2022-11-11T05:42:28;39.95;;;15.20;;
69569;SDS011;56781;42.292;23.146;2022-11-11T05:44:56;36.75;;;14.93;;
69569;SDS011;56781;42.292;23.146;2022-11-11T05:47:23;40.95;;;17.30;;
69569;SDS011;56781;42.292;23.146;2022-11-11T05:49:51;41.03;;;18.33;;
69569;SDS011;56781;42.292;23.146;2022-11-11T05:52:18;146.73;;;42.47;;
69569;SDS011;56781;42.292;23.146;2022-11-11T05:54:45;75.55;;;25.38;;
69569;SDS011;56781;42.292;23.146;2022-11-11T05:57:12;70.85;;;24.67;;
69569;SDS011;56781;42.292;23.146;2022-11-11T05:59:39;58.53;;;21.08;;
69569;SDS011;56781;42.292;23.146;2022-11-11T06:02:07;42.70;;;17.90;;
69569;SDS011;56781;42.292;23.146;2022-11-11T06:04:34;41.23;;;16.63;;
69569;SDS011;56781;42.292;23.146;2022-11-11T06:07:02;40.63;;;17.00;;
69569;SDS011;56781;42.292;23.146;2022-11-11T06:09:29;40.00;;;16.17;;
69569;SDS011;56781;42.292;23.146;2022-11-11T06:11:56;41.85;;;16.65;;
69569;SDS011;56781;42.292;23.146;2022-11-11T06:14:23;39.38;;;16.42;;
69569;SDS011;56781;42.292;23.146;2022-11-11T06:16:50;34.97;;;15.73;;
69569;SDS011;56781;42.292;23.146;2022-11-11T06:19:17;34.80;;;15.80;;
69569;SDS011;56781;42.292;23.146;2022-11-11T06:21:44;40.85;;;19.65;;
69569;SDS011;56781;42.292;23.146;2022-11-11T06:24:23;43.85;;;18.83;;
69569;SDS011;56781;42.292;23.146;2022-11-11T06:26:53;58.92;;;23.48;;
69569;SDS011;56781;42.292;23.146;2022-11-11T06:29:21;73.10;;;26.93;;
69569;SDS011;56781;42.292;23.146;2022-11-11T06:31:48;39.63;;;17.27;;
69569;SDS011;56781;42.292;23.146;2022-11-11T06:34:15;38.15;;;16.48;;
69569;SDS011;56781;42.292;23.146;2022-11-11T06:36:42;39.55;;;16.65;;
69569;SDS011;56781;42.292;23.146;2022-11-11T06:39:09;41.08;;;17.33;;
69569;SDS011;56781;42.292;23.146;2022-11-11T06:41:36;41.23;;;16.30;;
69569;SDS011;56781;42.292;23.146;2022-11-11T06:44:03;48.75;;;19.15;;
69569;SDS011;56781;42.292;23.146;2022-11-11T06:46:30;51.50;;;19.80;;
69569;SDS011;56781;42.292;23.146;2022-11-11T06:48:58;52.45;;;21.60;;
69569;SDS011;56781;42.292;23.146;2022-11-11T06:51:25;51.80;;;21.45;;
69569;SDS011;56781;42.292;23.146;2022-11-11T06:53:52;52.87;;;22.03;;
69569;SDS011;56781;42.292;23.146;2022-11-11T06:56:19;52.67;;;20.75;;
69569;SDS011;56781;42.292;23.146;2022-11-11T06:58:46;50.35;;;20.20;;
69569;SDS011;56781;42.292;23.146;2022-11-11T07:01:13;52.65;;;21.15;;
69569;SDS011;56781;42.292;23.146;2022-11-11T07:03:40;53.40;;;21.58;;
69569;SDS011;56781;42.292;23.146;2022-11-11T07:06:07;62.37;;;23.73;;
69569;SDS011;56781;42.292;23.146;2022-11-11T07:08:34;46.22;;;20.35;;
69569;SDS011;56781;42.292;23.146;2022-11-11T07:11:01;54.08;;;22.02;;
69569;SDS011;56781;42.292;23.146;2022-11-11T07:13:37;46.95;;;18.35;;
69569;SDS011;56781;42.292;23.146;2022-11-11T07:16:05;45.78;;;19.60;;
69569;SDS011;56781;42.292;23.146;2022-11-11T07:18:32;64.20;;;23.50;;
69569;SDS011;56781;42.292;23.146;2022-11-11T07:20:59;51.55;;;20.80;;
69569;SDS011;56781;42.292;23.146;2022-11-11T07:23:26;46.40;;;20.23;;
69569;SDS011;56781;42.292;23.146;2022-11-11T07:25:53;39.28;;;19.27;;
69569;SDS011;56781;42.292;23.146;2022-11-11T07:28:20;62.65;;;23.30;;
69569;SDS011;56781;42.292;23.146;2022-11-11T07:30:48;45.00;;;19.00;;
69569;SDS011;56781;42.292;23.146;2022-11-11T07:33:15;42.78;;;18.63;;
69569;SDS011;56781;42.292;23.146;2022-11-11T07:35:49;47.08;;;19.67;;
69569;SDS011;56781;42.292;23.146;2022-11-11T07:38:16;44.65;;;19.75;;
69569;SDS011;56781;42.292;23.146;2022-11-11T07:40:44;42.13;;;20.85;;
69569;SDS011;56781;42.292;23.146;2022-11-11T07:43:11;47.87;;;21.07;;
69569;SDS011;56781;42.292;23.146;2022-11-11T07:45:38;40.85;;;19.20;;
69569;SDS011;56781;42.292;23.146;2022-11-11T07:48:05;41.30;;;19.63;;
69569;SDS011;56781;42.292;23.146;2022-11-11T07:50:32;46.15;;;19.88;;
69569;SDS011;56781;42.292;23.146;2022-11-11T07:52:59;45.40;;;20.10;;
69569;SDS011;56781;42.292;23.146;2022-11-11T07:55:26;47.37;;;21.13;;
69569;SDS011;56781;42.292;23.146;2022-11-11T07:57:53;52.30;;;23.35;;
69569;SDS011;56781;42.292;23.146;2022-11-11T08:00:20;48.60;;;21.80;;
69569;SDS011;56781;42.292;23.146;2022-11-11T08:02:47;36.97;;;18.90;;
69569;SDS011;56781;42.292;23.146;2022-11-11T08:05:15;45.30;;;18.48;;
69569;SDS011;56781;42.292;23.146;2022-11-11T08:07:42;49.23;;;20.80;;
69569;SDS011;56781;42.292;23.146;2022-11-11T08:10:09;48.33;;;20.38;;
69569;SDS011;56781;42.292;23.146;2022-11-11T08:12:37;47.50;;;20.95;;
69569;SDS011;56781;42.292;23.146;2022-11-11T08:15:23;59.35;;;24.92;;
69569;SDS011;56781;42.292;23.146;2022-11-11T08:17:50;65.60;;;26.15;;
69569;SDS011;56781;42.292;23.146;2022-11-11T08:20:17;40.87;;;18.97;;
69569;SDS011;56781;42.292;23.146;2022-11-11T08:22:44;38.22;;;18.42;;
69569;SDS011;56781;42.292;23.146;2022-11-11T08:25:30;42.40;;;18.80;;
69569;SDS011;56781;42.292;23.146;2022-11-11T08:27:58;40.58;;;18.80;;
69569;SDS011;56781;42.292;23.146;2022-11-11T08:30:31;41.13;;;19.20;;
69569;SDS011;56781;42.292;23.146;2022-11-11T08:32:59;41.50;;;19.53;;
69569;SDS011;56781;42.292;23.146;2022-11-11T08:35:50;37.65;;;18.70;;
69569;SDS011;56781;42.292;23.146;2022-11-11T08:38:22;128.70;;;50.05;;
69569;SDS011;56781;42.292;23.146;2022-11-11T08:40:50;65.43;;;29.20;;
69569;SDS011;56781;42.292;23.146;2022-11-11T08:43:18;43.67;;;20.40;;
69569;SDS011;56781;42.292;23.146;2022-11-11T08:45:45;72.70;;;28.10;;
69569;SDS011;56781;42.292;23.146;2022-11-11T08:48:12;46.47;;;20.90;;
69569;SDS011;56781;42.292;23.146;2022-11-11T08:50:40;53.40;;;23.48;;
69569;SDS011;56781;42.292;23.146;2022-11-11T08:53:07;64.43;;;26.17;;
69569;SDS011;56781;42.292;23.146;2022-11-11T08:55:34;50.88;;;21.92;;
69569;SDS011;56781;42.292;23.146;2022-11-11T08:58:03;45.40;;;20.73;;
69569;SDS011;56781;42.292;23.146;2022-11-11T09:00:31;42.97;;;19.42;;
69569;SDS011;56781;42.292;23.146;2022-11-11T09:03:02;40.03;;;18.55;;
69569;SDS011;56781;42.292;23.146;2022-11-11T09:05:31;32.58;;;13.88;;
69569;SDS011;56781;42.292;23.146;2022-11-11T09:07:59;23.83;;;11.45;;
69569;SDS011;56781;42.292;23.146;2022-11-11T09:10:27;24.63;;;9.27;;
69569;SDS011;56781;42.292;23.146;2022-11-11T09:12:57;16.73;;;8.00;;
69569;SDS011;56781;42.292;23.146;2022-11-11T09:15:25;16.48;;;7.40;;
69569;SDS011;56781;42.292;23.146;2022-11-11T09:17:53;15.93;;;7.55;;
69569;SDS011;56781;42.292;23.146;2022-11-11T09:20:20;16.38;;;7.63;;
69569;SDS011;56781;42.292;23.146;2022-11-11T09:22:50;13.83;;;6.47;;
69569;SDS011;56781;42.292;23.146;2022-11-11T09:25:20;11.73;;;5.65;;
69569;SDS011;56781;42.292;23.146;2022-11-11T09:27:58;11.00;;;5.55;;
69569;SDS011;56781;42.292;23.146;2022-11-11T09:30:27;10.90;;;5.50;;
69569;SDS011;56781;42.292;23.146;2022-11-11T09:32:59;11.32;;;5.90;;
69569;SDS011;56781;42.292;23.146;2022-11-11T09:35:27;13.00;;;5.90;;
69569;SDS011;56781;42.292;23.146;2022-11-11T09:37:56;12.73;;;6.30;;
69569;SDS011;56781;42.292;23.146;2022-11-11T09:40:25;12.00;;;5.50;;
69569;SDS011;56781;42.292;23.146;2022-11-11T09:43:02;7.57;;;4.15;;
69569;SDS011;56781;42.292;23.146;2022-11-11T09:45:55;8.73;;;4.55;;
69569;SDS011;56781;42.292;23.146;2022-11-11T09:51:58;7.38;;;4.32;;
69569;SDS011;56781;42.292;23.146;2022-11-11T09:54:33;10.68;;;5.35;;
69569;SDS011;56781;42.292;23.146;2022-11-11T09:57:09;10.98;;;5.80;;
69569;SDS011;56781;42.292;23.146;2022-11-11T09:59:46;11.20;;;4.32;;
69569;SDS011;56781;42.292;23.146;2022-11-11T10:02:29;10.60;;;4.77;;
69569;SDS011;56781;42.292;23.146;2022-11-11T10:05:07;10.65;;;5.65;;
69569;SDS011;56781;42.292;23.146;2022-11-11T10:07:58;10.43;;;4.63;;
69569;SDS011;56781;42.292;23.146;2022-11-11T10:10:43;10.23;;;4.75;;
69569;SDS011;56781;42.292;23.146;2022-11-11T10:13:15;7.45;;;3.65;;
69569;SDS011;56781;42.292;23.146;2022-11-11T10:15:52;8.33;;;4.30;;
69569;SDS011;56781;42.292;23.146;2022-11-11T10:21:27;12.15;;;5.65;;
69569;SDS011;56781;42.292;23.146;2022-11-11T10:24:27;12.27;;;5.82;;
69569;SDS011;56781;42.292;23.146;2022-11-11T10:27:14;8.32;;;4.30;;
69569;SDS011;56781;42.292;23.146;2022-11-11T10:29:44;11.67;;;5.57;;
69569;SDS011;56781;42.292;23.146;2022-11-11T10:32:22;11.43;;;5.53;;
69569;SDS011;56781;42.292;23.146;2022-11-11T10:34:51;11.00;;;5.88;;
69569;SDS011;56781;42.292;23.146;2022-11-11T10:37:38;10.55;;;5.35;;
69569;SDS011;56781;42.292;23.146;2022-11-11T10:42:36;9.50;;;4.83;;
69569;SDS011;56781;42.292;23.146;2022-11-11T10:47:59;10.27;;;4.85;;
69569;SDS011;56781;42.292;23.146;2022-11-11T10:55:42;8.83;;;4.47;;
69569;SDS011;56781;42.292;23.146;2022-11-11T10:58:21;10.38;;;5.70;;
69569;SDS011;56781;42.292;23.146;2022-11-11T11:00:56;7.80;;;3.85;;
69569;SDS011;56781;42.292;23.146;2022-11-11T11:03:33;10.35;;;4.80;;
69569;SDS011;56781;42.292;23.146;2022-11-11T11:06:26;8.25;;;4.65;;
69569;SDS011;56781;42.292;23.146;2022-11-11T11:09:07;9.13;;;4.70;;
69569;SDS011;56781;42.292;23.146;2022-11-11T11:11:47;10.38;;;4.78;;
69569;SDS011;56781;42.292;23.146;2022-11-11T11:14:33;9.88;;;5.20;;
69569;SDS011;56781;42.292;23.146;2022-11-11T11:17:14;8.93;;;4.78;;
69569;SDS011;56781;42.292;23.146;2022-11-11T11:20:06;9.82;;;4.82;;
69569;SDS011;56781;42.292;23.146;2022-11-11T11:22:55;9.37;;;4.70;;
69569;SDS011;56781;42.292;23.146;2022-11-11T11:25:25;5.57;;;3.25;;
69569;SDS011;56781;42.292;23.146;2022-11-11T11:28:09;10.25;;;4.93;;
69569;SDS011;56781;42.292;23.146;2022-11-11T11:30:38;8.32;;;3.90;;
69569;SDS011;56781;42.292;23.146;2022-11-11T11:33:06;7.03;;;3.78;;
69569;SDS011;56781;42.292;23.146;2022-11-11T11:35:41;9.80;;;4.57;;
69569;SDS011;56781;42.292;23.146;2022-11-11T11:38:10;9.90;;;3.95;;
69569;SDS011;56781;42.292;23.146;2022-11-11T11:40:43;9.18;;;3.95;;
69569;SDS011;56781;42.292;23.146;2022-11-11T11:43:25;10.32;;;5.30;;
69569;SDS011;56781;42.292;23.146;2022-11-11T11:46:19;7.70;;;3.58;;
69569;SDS011;56781;42.292;23.146;2022-11-11T11:57:35;6.30;;;3.17;;
69569;SDS011;56781;42.292;23.146;2022-11-11T12:00:12;11.10;;;4.20;;
69569;SDS011;56781;42.292;23.146;2022-11-11T12:34:05;8.32;;;3.53;;
69569;SDS011;56781;42.292;23.146;2022-11-11T12:39:23;7.15;;;3.58;;
69569;SDS011;56781;42.292;23.146;2022-11-11T12:42:25;7.68;;;3.90;;
69569;SDS011;56781;42.292;23.146;2022-11-11T12:47:46;8.50;;;3.88;;
69569;SDS011;56781;42.292;23.146;2022-11-11T12:53:31;8.80;;;4.35;;
69569;SDS011;56781;42.292;23.146;2022-11-11T13:04:34;9.20;;;4.50;;
69569;SDS011;56781;42.292;23.146;2022-11-11T13:10:32;8.73;;;4.50;;
69569;SDS011;56781;42.292;23.146;2022-11-11T13:16:08;7.88;;;4.25;;
69569;SDS011;56781;42.292;23.146;2022-11-11T13:21:52;8.90;;;4.50;;
69569;SDS011;56781;42.292;23.146;2022-11-11T13:24:24;6.80;;;3.72;;
69569;SDS011;56781;42.292;23.146;2022-11-11T13:26:53;10.75;;;4.28;;
69569;SDS011;56781;42.292;23.146;2022-11-11T13:32:12;6.95;;;3.75;;
69569;SDS011;56781;42.292;23.146;2022-11-11T13:34:44;7.25;;;3.67;;
69569;SDS011;56781;42.292;23.146;2022-11-11T13:37:23;8.52;;;3.97;;
69569;SDS011;56781;42.292;23.146;2022-11-11T13:40:03;6.73;;;3.57;;
69569;SDS011;56781;42.292;23.146;2022-11-11T13:42:37;7.78;;;4.10;;
69569;SDS011;56781;42.292;23.146;2022-11-11T13:45:12;8.02;;;4.00;;
69569;SDS011;56781;42.292;23.146;2022-11-11T13:47:50;7.60;;;3.53;;
69569;SDS011;56781;42.292;23.146;2022-11-11T13:50:31;7.10;;;3.50;;
69569;SDS011;56781;42.292;23.146;2022-11-11T13:53:03;7.87;;;3.53;;
69569;SDS011;56781;42.292;23.146;2022-11-11T13:55:38;6.65;;;3.75;;
69569;SDS011;56781;42.292;23.146;2022-11-11T14:01:02;8.73;;;3.83;;
69569;SDS011;56781;42.292;23.146;2022-11-11T14:13:54;6.22;;;3.28;;
69569;SDS011;56781;42.292;23.146;2022-11-11T14:21:49;7.22;;;3.88;;
69569;SDS011;56781;42.292;23.146;2022-11-11T14:27:26;7.70;;;2.60;;
69569;SDS011;56781;42.292;23.146;2022-11-11T14:29:54;6.70;;;2.80;;
69569;SDS011;56781;42.292;23.146;2022-11-11T14:35:00;4.78;;;2.38;;
69569;SDS011;56781;42.292;23.146;2022-11-11T14:38:06;6.40;;;3.38;;
69569;SDS011;56781;42.292;23.146;2022-11-11T14:40:32;6.55;;;2.95;;
69569;SDS011;56781;42.292;23.146;2022-11-11T14:43:32;8.88;;;3.50;;
69569;SDS011;56781;42.292;23.146;2022-11-11T14:46:06;4.87;;;1.90;;
69569;SDS011;56781;42.292;23.146;2022-11-11T14:48:50;5.60;;;2.85;;
69569;SDS011;56781;42.292;23.146;2022-11-11T14:54:04;5.93;;;2.80;;
69569;SDS011;56781;42.292;23.146;2022-11-11T14:56:41;8.68;;;3.15;;
69569;SDS011;56781;42.292;23.146;2022-11-11T14:59:10;7.50;;;3.00;;
69569;SDS011;56781;42.292;23.146;2022-11-11T15:01:40;6.50;;;3.17;;
69569;SDS011;56781;42.292;23.146;2022-11-11T15:04:10;6.10;;;2.90;;
69569;SDS011;56781;42.292;23.146;2022-11-11T15:09:32;6.65;;;3.40;;
69569;SDS011;56781;42.292;23.146;2022-11-11T15:17:44;7.90;;;3.53;;
69569;SDS011;56781;42.292;23.146;2022-11-11T15:23:11;8.60;;;4.07;;
69569;SDS011;56781;42.292;23.146;2022-11-11T15:28:52;7.90;;;3.55;;
69569;SDS011;56781;42.292;23.146;2022-11-11T15:31:41;7.07;;;3.55;;
69569;SDS011;56781;42.292;23.146;2022-11-11T15:34:33;7.57;;;4.00;;
69569;SDS011;56781;42.292;23.146;2022-11-11T15:37:13;8.45;;;4.25;;
69569;SDS011;56781;42.292;23.146;2022-11-11T15:39:45;8.07;;;3.73;;
69569;SDS011;56781;42.292;23.146;2022-11-11T15:42:39;7.25;;;3.72;;
69569;SDS011;56781;42.292;23.146;2022-11-11T15:45:14;7.97;;;3.83;;
69569;SDS011;56781;42.292;23.146;2022-11-11T15:47:48;8.27;;;4.00;;
69569;SDS011;56781;42.292;23.146;2022-11-11T15:50:28;8.80;;;4.57;;
69569;SDS011;56781;42.292;23.146;2022-11-11T15:52:58;9.90;;;4.57;;
69569;SDS011;56781;42.292;23.146;2022-11-11T15:55:33;8.40;;;4.30;;
69569;SDS011;56781;42.292;23.146;2022-11-11T15:58:16;8.68;;;3.78;;
69569;SDS011;56781;42.292;23.146;2022-11-11T16:00:50;9.30;;;4.10;;
69569;SDS011;56781;42.292;23.146;2022-11-11T16:03:23;11.00;;;5.00;;
69569;SDS011;56781;42.292;23.146;2022-11-11T16:05:56;9.10;;;3.90;;
69569;SDS011;56781;42.292;23.146;2022-11-11T16:08:24;10.23;;;4.70;;
69569;SDS011;56781;42.292;23.146;2022-11-11T16:10:52;8.70;;;3.60;;
69569;SDS011;56781;42.292;23.146;2022-11-11T16:13:24;9.48;;;4.43;;
69569;SDS011;56781;42.292;23.146;2022-11-11T16:16:03;8.57;;;4.70;;
69569;SDS011;56781;42.292;23.146;2022-11-11T16:18:42;10.30;;;5.00;;
69569;SDS011;56781;42.292;23.146;2022-11-11T16:23:57;5.72;;;3.08;;
69569;SDS011;56781;42.292;23.146;2022-11-11T16:26:26;11.27;;;4.65;;
69569;SDS011;56781;42.292;23.146;2022-11-11T16:28:54;11.30;;;4.70;;
69569;SDS011;56781;42.292;23.146;2022-11-11T16:31:36;10.40;;;4.87;;
69569;SDS011;56781;42.292;23.146;2022-11-11T16:37:05;8.23;;;4.32;;
69569;SDS011;56781;42.292;23.146;2022-11-11T16:39:41;8.07;;;3.70;;
69569;SDS011;56781;42.292;23.146;2022-11-11T16:42:19;8.93;;;3.85;;
69569;SDS011;56781;42.292;23.146;2022-11-11T16:44:56;8.20;;;3.77;;
69569;SDS011;56781;42.292;23.146;2022-11-11T16:50:09;8.13;;;3.90;;
69569;SDS011;56781;42.292;23.146;2022-11-11T16:52:55;10.15;;;3.67;;
69569;SDS011;56781;42.292;23.146;2022-11-11T16:55:31;8.63;;;3.83;;
69569;SDS011;56781;42.292;23.146;2022-11-11T16:58:17;7.63;;;3.97;;
69569;SDS011;56781;42.292;23.146;2022-11-11T17:00:46;9.15;;;4.72;;
69569;SDS011;56781;42.292;23.146;2022-11-11T17:03:15;9.10;;;4.32;;
69569;SDS011;56781;42.292;23.146;2022-11-11T17:05:58;10.00;;;4.78;;
69569;SDS011;56781;42.292;23.146;2022-11-11T17:08:37;11.48;;;5.03;;
69569;SDS011;56781;42.292;23.146;2022-11-11T17:11:05;11.33;;;5.20;;